createdAt,value
2023-05-02T07:02:27.905Z,15.94
2023-05-02T07:05:31.246Z,16.02
2023-05-02T07:08:33.647Z,16.16
2023-05-02T07:11:36.328Z,16.34
2023-05-02T07:14:39.428Z,16.41
2023-05-02T07:17:43.726Z,16.86
2023-05-02T07:20:46.397Z,17.47
2023-05-02T07:23:49.157Z,17.92
2023-05-02T07:26:51.579Z,17.33
2023-05-02T07:29:54.202Z,17.40
2023-05-02T07:32:58.055Z,17.08
2023-05-02T07:36:01.827Z,17.53
2023-05-02T07:39:04.218Z,17.21
2023-05-02T07:42:06.868Z,17.20
2023-05-02T07:45:10.020Z,17.65
2023-05-02T07:48:14.186Z,17.97
2023-05-02T07:51:16.857Z,18.55
2023-05-02T07:54:20.181Z,18.57
2023-05-02T07:57:23.533Z,19.28
2023-05-02T08:00:26.459Z,18.73
2023-05-02T08:03:30.604Z,18.87
2023-05-02T08:06:33.302Z,19.62
2023-05-02T08:09:36.181Z,19.64
2023-05-02T08:12:40.073Z,19.17
2023-05-02T08:15:42.898Z,19.50
2023-05-02T08:18:46.778Z,19.37
2023-05-02T08:21:49.503Z,19.48
2023-05-02T08:24:51.897Z,19.57
2023-05-02T08:27:54.599Z,19.82
2023-05-02T08:30:57.472Z,20.00
2023-05-02T08:34:01.523Z,19.63
2023-05-02T08:37:08.311Z,20.25
2023-05-02T08:40:12.603Z,20.03
2023-05-02T08:43:16.594Z,19.95
2023-05-02T08:46:19.492Z,20.05
2023-05-02T08:49:24.182Z,20.20
2023-05-02T08:52:26.885Z,20.29
2023-05-02T08:55:29.408Z,20.01
2023-05-02T08:58:32.375Z,19.93
2023-05-02T09:01:38.026Z,20.03
2023-05-02T09:04:43.077Z,20.27
2023-05-02T09:07:47.307Z,20.22
2023-05-02T09:10:50.679Z,20.20
2023-05-02T09:13:53.167Z,20.32
2023-05-02T09:16:58.787Z,20.65
2023-05-02T09:20:03.459Z,20.58
2023-05-02T09:23:06.161Z,20.29
2023-05-02T09:26:17.339Z,20.27
2023-05-02T09:29:20.367Z,20.14
2023-05-02T09:32:22.894Z,20.27
2023-05-02T09:35:27.091Z,20.72
2023-05-02T09:38:29.598Z,20.62
2023-05-02T09:41:39.676Z,21.07
2023-05-02T09:44:43.119Z,21.37
2023-05-02T09:47:45.874Z,22.17
2023-05-02T09:50:50.404Z,21.56
2023-05-02T09:53:53.208Z,21.44
2023-05-02T09:56:58.902Z,21.26
2023-05-02T10:00:02.238Z,21.05
2023-05-02T10:03:18.279Z,20.56
2023-05-02T10:06:24.273Z,20.64
2023-05-02T10:09:28.297Z,20.63
2023-05-02T10:12:31.107Z,21.15
2023-05-02T10:15:34.694Z,20.92
2023-05-02T10:18:41.261Z,20.82
2023-05-02T10:21:45.530Z,20.92
2023-05-02T10:24:49.200Z,21.03
2023-05-02T10:27:52.016Z,21.11
2023-05-02T10:30:55.539Z,20.93
2023-05-02T10:33:58.260Z,21.10
2023-05-02T10:37:03.566Z,21.28
2023-05-02T10:40:09.814Z,21.26
2023-05-02T10:43:14.690Z,21.71
2023-05-02T10:46:35.027Z,21.81
2023-05-02T10:49:49.281Z,21.99
2023-05-02T10:52:53.135Z,21.91
2023-05-02T10:56:13.012Z,22.36
2023-05-02T10:59:27.106Z,22.46
2023-05-02T11:02:57.264Z,22.36
2023-05-02T11:06:07.153Z,22.52
2023-05-02T11:09:33.281Z,22.45
2023-05-02T11:12:48.616Z,22.58
2023-05-02T11:15:55.034Z,22.68
2023-05-02T11:19:01.017Z,22.86
2023-05-02T11:22:33.461Z,23.06
2023-05-02T11:25:38.633Z,22.77
2023-05-02T11:28:43.480Z,22.93
2023-05-02T11:32:04.135Z,23.17
2023-05-02T11:35:07.756Z,23.42
2023-05-02T11:38:10.998Z,23.22
2023-05-02T11:41:14.812Z,23.55
2023-05-02T11:44:17.259Z,23.51
2023-05-02T11:47:19.969Z,23.51
2023-05-02T11:50:22.795Z,23.63
2023-05-02T11:53:26.107Z,23.35
2023-05-02T11:56:29.973Z,22.95
2023-05-02T11:59:48.990Z,22.85
2023-05-02T12:02:51.416Z,22.80
2023-05-02T12:05:54.324Z,22.88
2023-05-02T12:09:06.444Z,22.99
2023-05-02T12:12:10.571Z,23.31
2023-05-02T12:15:13.010Z,23.30
2023-05-02T12:18:15.905Z,23.27
2023-05-02T12:21:18.412Z,23.89
2023-05-02T12:24:21.464Z,23.85
2023-05-02T12:27:25.403Z,24.12
2023-05-02T12:30:28.203Z,24.41
2023-05-02T12:33:31.159Z,24.36
2023-05-02T12:36:34.403Z,24.49
2023-05-02T12:39:37.855Z,24.62
2023-05-02T12:42:42.211Z,24.22
2023-05-02T12:45:44.676Z,24.02
2023-05-02T12:48:47.413Z,23.96
2023-05-02T12:51:53.249Z,23.63
2023-05-02T12:55:16.863Z,23.53
2023-05-02T12:58:21.936Z,23.44
2023-05-02T13:01:24.714Z,23.66
2023-05-02T13:04:36.678Z,23.58
2023-05-02T13:07:39.378Z,23.79
2023-05-02T13:10:42.341Z,24.40
2023-05-02T13:13:46.628Z,23.60
2023-05-02T13:16:49.678Z,23.28
2023-05-02T13:20:00.739Z,23.03
2023-05-02T13:23:04.109Z,22.93
2023-05-02T13:26:06.830Z,22.84
2023-05-02T13:29:11.814Z,22.88
2023-05-02T13:32:14.519Z,22.82
2023-05-02T13:35:16.961Z,23.21
2023-05-02T13:38:19.648Z,23.07
2023-05-02T13:41:24.563Z,23.23
2023-05-02T13:44:28.732Z,23.08
2023-05-02T13:47:31.382Z,23.54
2023-05-02T13:50:37.258Z,23.09
2023-05-02T13:53:39.847Z,23.10
2023-05-02T13:56:42.726Z,23.54
2023-05-02T13:59:46.455Z,23.22
2023-05-02T14:02:49.267Z,23.61
2023-05-02T14:05:52.079Z,23.64
2023-05-02T14:08:54.564Z,23.46
2023-05-02T14:11:58.860Z,23.66
2023-05-02T14:15:03.191Z,23.71
2023-05-02T14:18:06.241Z,23.23
2023-05-02T14:21:08.654Z,23.24
2023-05-02T14:24:12.620Z,23.33
2023-05-02T14:27:18.327Z,23.17
2023-05-02T14:30:22.503Z,23.05
2023-05-02T14:33:24.896Z,23.00
2023-05-02T14:36:27.619Z,23.24
2023-05-02T14:39:30.090Z,23.24
2023-05-02T14:42:32.819Z,22.76
2023-05-02T14:45:36.870Z,22.50
2023-05-02T14:48:39.582Z,22.57
2023-05-02T14:51:43.004Z,22.44
2023-05-02T14:54:45.822Z,22.53
2023-05-02T14:57:48.350Z,22.50
2023-05-02T15:00:52.517Z,22.65
2023-05-02T15:04:05.371Z,22.87
2023-05-02T15:07:09.231Z,23.16
2023-05-02T15:10:11.745Z,22.86
2023-05-02T15:13:14.681Z,22.84
2023-05-02T15:16:18.489Z,22.84
2023-05-02T15:19:25.182Z,22.73
2023-05-02T15:22:27.706Z,22.61
2023-05-02T15:25:30.860Z,23.02
2023-05-02T15:28:33.242Z,22.77
2023-05-02T15:31:37.666Z,22.81
2023-05-02T15:34:40.145Z,22.62
2023-05-02T15:37:42.880Z,22.58
2023-05-02T15:40:45.510Z,22.52
2023-05-02T15:43:48.227Z,22.45
2023-05-02T15:46:52.104Z,22.46
2023-05-02T15:49:55.174Z,22.42
2023-05-02T15:52:57.635Z,22.51
2023-05-02T15:56:00.371Z,22.38
2023-05-02T15:59:02.774Z,22.40
